sensor_id;sensor_type;location;lat;lon;timestamp;temperature;humidity
66708;DHT22;53622;0.000;0.000;2023-01-28T00:00:11;19.20;40.10
66708;DHT22;53622;0.000;0.000;2023-01-28T00:02:40;19.20;40.10
66708;DHT22;53622;0.000;0.000;2023-01-28T00:05:10;19.20;40.10
66708;DHT22;53622;0.000;0.000;2023-01-28T00:07:40;19.10;40.00
66708;DHT22;53622;0.000;0.000;2023-01-28T00:10:11;19.10;40.00
66708;DHT22;53622;0.000;0.000;2023-01-28T00:12:40;19.10;40.00
66708;DHT22;53622;0.000;0.000;2023-01-28T00:15:10;19.10;40.00
66708;DHT22;53622;0.000;0.000;2023-01-28T00:17:40;19.10;40.10
66708;DHT22;53622;0.000;0.000;2023-01-28T00:20:10;19.10;40.00
66708;DHT22;53622;0.000;0.000;2023-01-28T00:22:39;19.10;40.00
66708;DHT22;53622;0.000;0.000;2023-01-28T00:25:09;19.00;40.00
66708;DHT22;53622;0.000;0.000;2023-01-28T00:27:39;19.00;40.00
66708;DHT22;53622;0.000;0.000;2023-01-28T00:30:10;19.00;40.00
66708;DHT22;53622;0.000;0.000;2023-01-28T00:32:39;19.00;40.20
66708;DHT22;53622;0.000;0.000;2023-01-28T00:35:12;19.00;40.00
66708;DHT22;53622;0.000;0.000;2023-01-28T00:37:44;19.00;40.00
66708;DHT22;53622;0.000;0.000;2023-01-28T00:40:14;18.90;40.00
66708;DHT22;53622;0.000;0.000;2023-01-28T00:42:44;18.90;40.00
66708;DHT22;53622;0.000;0.000;2023-01-28T00:45:14;18.90;40.00
66708;DHT22;53622;0.000;0.000;2023-01-28T00:47:43;18.90;40.00
66708;DHT22;53622;0.000;0.000;2023-01-28T00:50:15;18.90;40.10
66708;DHT22;53622;0.000;0.000;2023-01-28T00:52:44;18.90;40.00
66708;DHT22;53622;0.000;0.000;2023-01-28T00:55:14;18.90;40.10
66708;DHT22;53622;0.000;0.000;2023-01-28T00:57:45;18.90;40.10
66708;DHT22;53622;0.000;0.000;2023-01-28T01:00:16;18.90;40.20
66708;DHT22;53622;0.000;0.000;2023-01-28T01:02:48;18.90;40.30
66708;DHT22;53622;0.000;0.000;2023-01-28T01:05:18;18.80;40.10
66708;DHT22;53622;0.000;0.000;2023-01-28T01:07:47;18.80;40.10
66708;DHT22;53622;0.000;0.000;2023-01-28T01:10:18;18.80;40.10
66708;DHT22;53622;0.000;0.000;2023-01-28T01:12:49;18.80;40.20
66708;DHT22;53622;0.000;0.000;2023-01-28T01:15:19;18.80;40.10
66708;DHT22;53622;0.000;0.000;2023-01-28T01:17:49;18.80;40.20
66708;DHT22;53622;0.000;0.000;2023-01-28T01:20:21;18.80;40.20
66708;DHT22;53622;0.000;0.000;2023-01-28T01:22:51;18.70;40.20
66708;DHT22;53622;0.000;0.000;2023-01-28T01:25:21;18.70;40.20
66708;DHT22;53622;0.000;0.000;2023-01-28T01:27:51;18.70;40.20
66708;DHT22;53622;0.000;0.000;2023-01-28T01:30:21;18.70;40.50
66708;DHT22;53622;0.000;0.000;2023-01-28T01:32:50;18.70;41.30
66708;DHT22;53622;0.000;0.000;2023-01-28T01:35:20;18.70;40.40
66708;DHT22;53622;0.000;0.000;2023-01-28T01:37:49;18.70;40.40
66708;DHT22;53622;0.000;0.000;2023-01-28T01:40:18;18.70;40.40
66708;DHT22;53622;0.000;0.000;2023-01-28T01:42:47;18.60;40.40
66708;DHT22;53622;0.000;0.000;2023-01-28T01:45:18;18.60;40.40
66708;DHT22;53622;0.000;0.000;2023-01-28T01:47:58;18.60;40.40
66708;DHT22;53622;0.000;0.000;2023-01-28T01:50:31;18.60;40.30
66708;DHT22;53622;0.000;0.000;2023-01-28T01:53:05;18.60;40.30
66708;DHT22;53622;0.000;0.000;2023-01-28T01:55:37;18.60;40.40
66708;DHT22;53622;0.000;0.000;2023-01-28T01:58:11;18.60;40.30
66708;DHT22;53622;0.000;0.000;2023-01-28T02:00:43;18.50;40.30
66708;DHT22;53622;0.000;0.000;2023-01-28T02:03:13;18.50;40.50
66708;DHT22;53622;0.000;0.000;2023-01-28T02:05:44;18.50;40.40
66708;DHT22;53622;0.000;0.000;2023-01-28T02:08:13;18.50;40.50
66708;DHT22;53622;0.000;0.000;2023-01-28T02:10:52;18.50;40.40
66708;DHT22;53622;0.000;0.000;2023-01-28T02:13:26;18.50;40.40
66708;DHT22;53622;0.000;0.000;2023-01-28T02:15:59;18.50;40.40
66708;DHT22;53622;0.000;0.000;2023-01-28T02:18:29;18.50;40.40
66708;DHT22;53622;0.000;0.000;2023-01-28T02:21:25;18.40;40.40
66708;DHT22;53622;0.000;0.000;2023-01-28T02:27:09;18.40;40.40
66708;DHT22;53622;0.000;0.000;2023-01-28T02:29:47;18.40;40.40
66708;DHT22;53622;0.000;0.000;2023-01-28T02:32:21;18.40;40.50
66708;DHT22;53622;0.000;0.000;2023-01-28T02:34:59;18.40;40.40
66708;DHT22;53622;0.000;0.000;2023-01-28T02:37:35;18.40;40.50
66708;DHT22;53622;0.000;0.000;2023-01-28T02:40:10;18.40;40.40
66708;DHT22;53622;0.000;0.000;2023-01-28T02:42:41;18.40;40.50
66708;DHT22;53622;0.000;0.000;2023-01-28T02:45:18;18.30;40.40
66708;DHT22;53622;0.000;0.000;2023-01-28T02:47:48;18.30;40.40
66708;DHT22;53622;0.000;0.000;2023-01-28T02:50:33;18.30;40.40
66708;DHT22;53622;0.000;0.000;2023-01-28T02:53:14;18.30;40.50
66708;DHT22;53622;0.000;0.000;2023-01-28T02:56:13;18.30;40.50
66708;DHT22;53622;0.000;0.000;2023-01-28T02:58:54;18.30;40.60
66708;DHT22;53622;0.000;0.000;2023-01-28T03:01:33;18.30;40.60
66708;DHT22;53622;0.000;0.000;2023-01-28T03:04:08;18.30;40.50
66708;DHT22;53622;0.000;0.000;2023-01-28T03:06:44;18.30;40.50
66708;DHT22;53622;0.000;0.000;2023-01-28T03:09:16;18.30;40.60
66708;DHT22;53622;0.000;0.000;2023-01-28T03:11:56;18.30;40.60
66708;DHT22;53622;0.000;0.000;2023-01-28T03:14:49;18.20;40.60
66708;DHT22;53622;0.000;0.000;2023-01-28T03:17:42;18.20;40.60
66708;DHT22;53622;0.000;0.000;2023-01-28T03:20:34;18.20;40.70
66708;DHT22;53622;0.000;0.000;2023-01-28T03:23:27;18.20;40.70
66708;DHT22;53622;0.000;0.000;2023-01-28T03:26:20;18.20;40.80
66708;DHT22;53622;0.000;0.000;2023-01-28T03:29:10;18.20;40.90
66708;DHT22;53622;0.000;0.000;2023-01-28T03:32:00;18.10;40.80
66708;DHT22;53622;0.000;0.000;2023-01-28T03:34:48;18.10;40.80
66708;DHT22;53622;0.000;0.000;2023-01-28T03:37:35;18.10;40.90
66708;DHT22;53622;0.000;0.000;2023-01-28T03:40:17;18.10;40.90
66708;DHT22;53622;0.000;0.000;2023-01-28T03:42:47;18.10;40.90
66708;DHT22;53622;0.000;0.000;2023-01-28T03:45:30;18.10;40.90
66708;DHT22;53622;0.000;0.000;2023-01-28T03:48:01;18.10;40.90
66708;DHT22;53622;0.000;0.000;2023-01-28T03:50:32;18.10;40.90
66708;DHT22;53622;0.000;0.000;2023-01-28T03:53:02;18.10;40.90
66708;DHT22;53622;0.000;0.000;2023-01-28T03:55:49;18.10;40.90
66708;DHT22;53622;0.000;0.000;2023-01-28T03:58:19;18.10;40.90
66708;DHT22;53622;0.000;0.000;2023-01-28T04:00:51;18.10;40.90
66708;DHT22;53622;0.000;0.000;2023-01-28T04:03:20;18.10;40.90
66708;DHT22;53622;0.000;0.000;2023-01-28T04:06:07;18.10;40.90
66708;DHT22;53622;0.000;0.000;2023-01-28T04:08:57;18.10;40.90
66708;DHT22;53622;0.000;0.000;2023-01-28T04:11:32;18.00;40.80
66708;DHT22;53622;0.000;0.000;2023-01-28T04:14:03;18.00;40.90
66708;DHT22;53622;0.000;0.000;2023-01-28T04:16:46;18.00;40.80
66708;DHT22;53622;0.000;0.000;2023-01-28T04:19:16;18.00;40.90
66708;DHT22;53622;0.000;0.000;2023-01-28T04:21:48;18.00;40.90
66708;DHT22;53622;0.000;0.000;2023-01-28T04:24:21;18.00;41.50
66708;DHT22;53622;0.000;0.000;2023-01-28T04:26:51;18.00;40.90
66708;DHT22;53622;0.000;0.000;2023-01-28T04:29:23;18.00;40.90
66708;DHT22;53622;0.000;0.000;2023-01-28T04:31:55;18.00;41.00
66708;DHT22;53622;0.000;0.000;2023-01-28T04:34:38;17.90;40.90
66708;DHT22;53622;0.000;0.000;2023-01-28T04:37:16;17.90;41.00
66708;DHT22;53622;0.000;0.000;2023-01-28T04:40:06;17.90;41.00
66708;DHT22;53622;0.000;0.000;2023-01-28T04:42:53;17.90;41.00
66708;DHT22;53622;0.000;0.000;2023-01-28T04:45:52;17.90;41.00
66708;DHT22;53622;0.000;0.000;2023-01-28T04:48:50;17.90;41.00
66708;DHT22;53622;0.000;0.000;2023-01-28T04:51:38;17.90;41.10
66708;DHT22;53622;0.000;0.000;2023-01-28T04:54:24;17.90;41.10
66708;DHT22;53622;0.000;0.000;2023-01-28T04:56:57;17.90;41.10
66708;DHT22;53622;0.000;0.000;2023-01-28T04:59:26;17.80;41.10
66708;DHT22;53622;0.000;0.000;2023-01-28T05:01:56;17.90;41.10
66708;DHT22;53622;0.000;0.000;2023-01-28T05:04:26;17.80;41.10
66708;DHT22;53622;0.000;0.000;2023-01-28T05:06:55;17.80;41.20
66708;DHT22;53622;0.000;0.000;2023-01-28T05:09:32;17.80;41.10
66708;DHT22;53622;0.000;0.000;2023-01-28T05:12:02;17.80;41.20
66708;DHT22;53622;0.000;0.000;2023-01-28T05:14:33;17.80;41.20
66708;DHT22;53622;0.000;0.000;2023-01-28T05:17:06;17.80;41.20
66708;DHT22;53622;0.000;0.000;2023-01-28T05:19:35;17.80;41.20
66708;DHT22;53622;0.000;0.000;2023-01-28T05:22:09;17.80;41.30
66708;DHT22;53622;0.000;0.000;2023-01-28T05:24:44;17.80;41.30
66708;DHT22;53622;0.000;0.000;2023-01-28T05:27:13;17.80;41.30
66708;DHT22;53622;0.000;0.000;2023-01-28T05:29:43;17.80;41.30
66708;DHT22;53622;0.000;0.000;2023-01-28T05:32:12;17.80;41.40
66708;DHT22;53622;0.000;0.000;2023-01-28T05:34:42;17.80;41.80
66708;DHT22;53622;0.000;0.000;2023-01-28T05:37:13;17.80;41.60
66708;DHT22;53622;0.000;0.000;2023-01-28T05:39:45;17.80;41.60
66708;DHT22;53622;0.000;0.000;2023-01-28T05:42:15;17.80;41.50
66708;DHT22;53622;0.000;0.000;2023-01-28T05:44:52;17.70;41.60
66708;DHT22;53622;0.000;0.000;2023-01-28T05:47:39;17.70;41.50
66708;DHT22;53622;0.000;0.000;2023-01-28T05:50:37;17.80;41.70
66708;DHT22;53622;0.000;0.000;2023-01-28T05:53:11;17.70;41.70
66708;DHT22;53622;0.000;0.000;2023-01-28T05:55:47;17.70;41.70
66708;DHT22;53622;0.000;0.000;2023-01-28T05:58:17;17.70;41.70
66708;DHT22;53622;0.000;0.000;2023-01-28T06:00:46;17.70;41.70
66708;DHT22;53622;0.000;0.000;2023-01-28T06:03:21;17.70;41.70
66708;DHT22;53622;0.000;0.000;2023-01-28T06:05:51;17.70;41.70
66708;DHT22;53622;0.000;0.000;2023-01-28T06:08:21;17.70;41.70
66708;DHT22;53622;0.000;0.000;2023-01-28T06:10:51;17.70;41.90
66708;DHT22;53622;0.000;0.000;2023-01-28T06:13:23;17.70;41.60
66708;DHT22;53622;0.000;0.000;2023-01-28T06:16:02;17.70;41.70
66708;DHT22;53622;0.000;0.000;2023-01-28T06:19:01;17.70;41.80
66708;DHT22;53622;0.000;0.000;2023-01-28T06:21:30;17.60;41.70
66708;DHT22;53622;0.000;0.000;2023-01-28T06:24:00;17.60;41.70
66708;DHT22;53622;0.000;0.000;2023-01-28T06:26:32;17.60;41.70
66708;DHT22;53622;0.000;0.000;2023-01-28T06:29:01;17.60;41.70
66708;DHT22;53622;0.000;0.000;2023-01-28T06:31:30;17.60;41.60
66708;DHT22;53622;0.000;0.000;2023-01-28T06:33:59;17.60;41.70
66708;DHT22;53622;0.000;0.000;2023-01-28T06:36:29;17.60;41.90
66708;DHT22;53622;0.000;0.000;2023-01-28T06:38:59;17.60;41.90
66708;DHT22;53622;0.000;0.000;2023-01-28T06:41:28;17.60;42.00
66708;DHT22;53622;0.000;0.000;2023-01-28T06:43:59;17.60;42.00
66708;DHT22;53622;0.000;0.000;2023-01-28T06:46:28;17.60;41.90
66708;DHT22;53622;0.000;0.000;2023-01-28T06:48:58;17.70;42.30
66708;DHT22;53622;0.000;0.000;2023-01-28T06:51:27;17.70;42.30
66708;DHT22;53622;0.000;0.000;2023-01-28T06:53:56;17.70;42.20
66708;DHT22;53622;0.000;0.000;2023-01-28T06:56:26;17.70;42.20
66708;DHT22;53622;0.000;0.000;2023-01-28T06:58:55;17.80;42.20
66708;DHT22;53622;0.000;0.000;2023-01-28T07:01:26;17.80;42.70
66708;DHT22;53622;0.000;0.000;2023-01-28T07:03:55;17.90;42.10
66708;DHT22;53622;0.000;0.000;2023-01-28T07:06:25;17.90;42.10
66708;DHT22;53622;0.000;0.000;2023-01-28T07:08:54;18.00;42.10
66708;DHT22;53622;0.000;0.000;2023-01-28T07:11:23;18.00;42.00
66708;DHT22;53622;0.000;0.000;2023-01-28T07:13:53;18.00;42.00
66708;DHT22;53622;0.000;0.000;2023-01-28T07:16:22;18.10;42.10
66708;DHT22;53622;0.000;0.000;2023-01-28T07:18:53;18.10;42.00
66708;DHT22;53622;0.000;0.000;2023-01-28T07:21:22;18.10;42.00
66708;DHT22;53622;0.000;0.000;2023-01-28T07:23:52;18.20;42.00
66708;DHT22;53622;0.000;0.000;2023-01-28T07:26:21;18.20;42.00
66708;DHT22;53622;0.000;0.000;2023-01-28T07:28:51;18.20;41.90
66708;DHT22;53622;0.000;0.000;2023-01-28T07:31:20;18.20;41.90
66708;DHT22;53622;0.000;0.000;2023-01-28T07:33:49;18.30;41.90
66708;DHT22;53622;0.000;0.000;2023-01-28T07:36:20;18.30;42.00
66708;DHT22;53622;0.000;0.000;2023-01-28T07:38:49;18.30;41.90
66708;DHT22;53622;0.000;0.000;2023-01-28T07:41:19;18.30;41.80
66708;DHT22;53622;0.000;0.000;2023-01-28T07:43:48;18.30;41.80
66708;DHT22;53622;0.000;0.000;2023-01-28T07:46:17;18.30;41.80
66708;DHT22;53622;0.000;0.000;2023-01-28T07:48:47;18.50;41.80
66708;DHT22;53622;0.000;0.000;2023-01-28T07:51:16;18.50;41.50
66708;DHT22;53622;0.000;0.000;2023-01-28T07:53:47;18.40;41.70
66708;DHT22;53622;0.000;0.000;2023-01-28T07:56:16;18.30;40.60
66708;DHT22;53622;0.000;0.000;2023-01-28T07:58:48;18.30;41.40
66708;DHT22;53622;0.000;0.000;2023-01-28T08:01:18;18.30;41.20
66708;DHT22;53622;0.000;0.000;2023-01-28T08:03:47;18.30;41.40
66708;DHT22;53622;0.000;0.000;2023-01-28T08:06:17;18.40;41.90
66708;DHT22;53622;0.000;0.000;2023-01-28T08:08:48;18.50;42.80
66708;DHT22;53622;0.000;0.000;2023-01-28T08:11:17;18.50;42.90
66708;DHT22;53622;0.000;0.000;2023-01-28T08:13:47;18.60;43.30
66708;DHT22;53622;0.000;0.000;2023-01-28T08:16:17;18.60;43.20
66708;DHT22;53622;0.000;0.000;2023-01-28T08:18:47;18.70;43.40
66708;DHT22;53622;0.000;0.000;2023-01-28T08:21:16;18.70;43.50
66708;DHT22;53622;0.000;0.000;2023-01-28T08:23:48;18.70;43.50
66708;DHT22;53622;0.000;0.000;2023-01-28T08:26:17;18.80;43.70
66708;DHT22;53622;0.000;0.000;2023-01-28T08:28:46;18.80;43.50
66708;DHT22;53622;0.000;0.000;2023-01-28T08:31:18;18.80;43.50
66708;DHT22;53622;0.000;0.000;2023-01-28T08:33:47;18.80;43.80
66708;DHT22;53622;0.000;0.000;2023-01-28T08:36:17;18.90;43.70
66708;DHT22;53622;0.000;0.000;2023-01-28T08:38:50;18.90;43.70
66708;DHT22;53622;0.000;0.000;2023-01-28T08:41:22;18.90;43.50
66708;DHT22;53622;0.000;0.000;2023-01-28T08:43:51;18.90;43.00
66708;DHT22;53622;0.000;0.000;2023-01-28T08:46:21;19.00;43.00
66708;DHT22;53622;0.000;0.000;2023-01-28T08:48:50;19.00;42.70
66708;DHT22;53622;0.000;0.000;2023-01-28T08:51:20;19.00;42.60
66708;DHT22;53622;0.000;0.000;2023-01-28T08:53:50;19.00;43.10
66708;DHT22;53622;0.000;0.000;2023-01-28T08:56:20;19.00;43.10
66708;DHT22;53622;0.000;0.000;2023-01-28T08:58:49;19.10;43.40
66708;DHT22;53622;0.000;0.000;2023-01-28T09:01:20;19.20;43.80
66708;DHT22;53622;0.000;0.000;2023-01-28T09:03:51;19.20;43.60
66708;DHT22;53622;0.000;0.000;2023-01-28T09:06:20;19.20;43.70
66708;DHT22;53622;0.000;0.000;2023-01-28T09:08:51;19.30;43.60
66708;DHT22;53622;0.000;0.000;2023-01-28T09:11:20;19.30;43.30
66708;DHT22;53622;0.000;0.000;2023-01-28T09:13:50;19.30;43.10
66708;DHT22;53622;0.000;0.000;2023-01-28T09:16:19;19.40;43.10
66708;DHT22;53622;0.000;0.000;2023-01-28T09:18:49;19.40;43.20
66708;DHT22;53622;0.000;0.000;2023-01-28T09:21:18;19.40;43.60
66708;DHT22;53622;0.000;0.000;2023-01-28T09:23:48;19.50;43.50
66708;DHT22;53622;0.000;0.000;2023-01-28T09:26:19;19.50;43.40
66708;DHT22;53622;0.000;0.000;2023-01-28T09:28:48;19.50;43.60
66708;DHT22;53622;0.000;0.000;2023-01-28T09:31:17;19.50;43.40
66708;DHT22;53622;0.000;0.000;2023-01-28T09:33:47;19.50;43.30
66708;DHT22;53622;0.000;0.000;2023-01-28T09:36:23;19.50;43.50
66708;DHT22;53622;0.000;0.000;2023-01-28T09:38:52;19.60;43.60
66708;DHT22;53622;0.000;0.000;2023-01-28T09:41:27;19.60;43.80
66708;DHT22;53622;0.000;0.000;2023-01-28T09:44:05;19.60;44.10
66708;DHT22;53622;0.000;0.000;2023-01-28T09:46:37;19.60;44.50
66708;DHT22;53622;0.000;0.000;2023-01-28T09:49:16;19.60;45.00
66708;DHT22;53622;0.000;0.000;2023-01-28T09:51:50;19.60;44.40
66708;DHT22;53622;0.000;0.000;2023-01-28T09:54:26;19.60;44.10
66708;DHT22;53622;0.000;0.000;2023-01-28T09:57:04;19.60;44.10
66708;DHT22;53622;0.000;0.000;2023-01-28T09:59:36;19.70;44.30
66708;DHT22;53622;0.000;0.000;2023-01-28T10:02:27;19.70;44.10
66708;DHT22;53622;0.000;0.000;2023-01-28T10:05:11;19.70;43.60
66708;DHT22;53622;0.000;0.000;2023-01-28T10:07:49;19.70;43.40
66708;DHT22;53622;0.000;0.000;2023-01-28T10:10:25;19.70;43.50
66708;DHT22;53622;0.000;0.000;2023-01-28T10:13:11;19.80;43.40
66708;DHT22;53622;0.000;0.000;2023-01-28T10:16:04;19.80;43.40
66708;DHT22;53622;0.000;0.000;2023-01-28T10:18:42;19.80;43.30
66708;DHT22;53622;0.000;0.000;2023-01-28T10:21:19;19.80;43.60
66708;DHT22;53622;0.000;0.000;2023-01-28T10:23:56;19.80;44.30
66708;DHT22;53622;0.000;0.000;2023-01-28T10:26:32;19.80;44.90
66708;DHT22;53622;0.000;0.000;2023-01-28T10:29:12;19.90;45.10
66708;DHT22;53622;0.000;0.000;2023-01-28T10:31:50;19.90;45.40
66708;DHT22;53622;0.000;0.000;2023-01-28T10:34:21;19.90;45.40
66708;DHT22;53622;0.000;0.000;2023-01-28T10:36:51;19.90;45.00
66708;DHT22;53622;0.000;0.000;2023-01-28T10:39:21;20.00;45.20
66708;DHT22;53622;0.000;0.000;2023-01-28T10:41:52;20.00;45.10
66708;DHT22;53622;0.000;0.000;2023-01-28T10:44:34;20.00;45.00
66708;DHT22;53622;0.000;0.000;2023-01-28T10:47:13;20.10;45.00
66708;DHT22;53622;0.000;0.000;2023-01-28T10:49:46;20.10;45.00
66708;DHT22;53622;0.000;0.000;2023-01-28T10:52:17;20.10;44.80
66708;DHT22;53622;0.000;0.000;2023-01-28T10:54:47;20.10;44.60
66708;DHT22;53622;0.000;0.000;2023-01-28T10:57:26;20.20;44.60
66708;DHT22;53622;0.000;0.000;2023-01-28T11:00:07;20.20;44.30
66708;DHT22;53622;0.000;0.000;2023-01-28T11:02:37;20.10;44.00
66708;DHT22;53622;0.000;0.000;2023-01-28T11:05:15;20.10;44.10
66708;DHT22;53622;0.000;0.000;2023-01-28T11:07:44;20.20;44.30
66708;DHT22;53622;0.000;0.000;2023-01-28T11:10:26;20.20;44.20
66708;DHT22;53622;0.000;0.000;2023-01-28T11:12:56;20.30;44.10
66708;DHT22;53622;0.000;0.000;2023-01-28T11:15:27;20.20;44.40
66708;DHT22;53622;0.000;0.000;2023-01-28T11:17:59;20.30;44.70
66708;DHT22;53622;0.000;0.000;2023-01-28T11:20:33;20.30;44.60
66708;DHT22;53622;0.000;0.000;2023-01-28T11:23:03;20.30;44.60
66708;DHT22;53622;0.000;0.000;2023-01-28T11:25:35;20.40;45.40
66708;DHT22;53622;0.000;0.000;2023-01-28T11:28:14;20.50;45.40
66708;DHT22;53622;0.000;0.000;2023-01-28T11:30:51;20.50;45.30
66708;DHT22;53622;0.000;0.000;2023-01-28T11:33:27;20.60;45.20
66708;DHT22;53622;0.000;0.000;2023-01-28T11:36:06;20.60;45.50
66708;DHT22;53622;0.000;0.000;2023-01-28T11:38:35;20.70;44.50
66708;DHT22;53622;0.000;0.000;2023-01-28T11:41:15;20.80;44.80
66708;DHT22;53622;0.000;0.000;2023-01-28T11:43:45;20.80;44.30
66708;DHT22;53622;0.000;0.000;2023-01-28T11:46:34;20.80;44.30
66708;DHT22;53622;0.000;0.000;2023-01-28T11:49:11;20.90;44.20
66708;DHT22;53622;0.000;0.000;2023-01-28T11:51:49;20.90;44.90
66708;DHT22;53622;0.000;0.000;2023-01-28T11:54:32;21.00;44.20
66708;DHT22;53622;0.000;0.000;2023-01-28T11:57:18;21.00;44.10
66708;DHT22;53622;0.000;0.000;2023-01-28T11:59:58;21.10;44.80
66708;DHT22;53622;0.000;0.000;2023-01-28T12:02:42;21.10;44.70
66708;DHT22;53622;0.000;0.000;2023-01-28T12:05:23;21.10;44.50
66708;DHT22;53622;0.000;0.000;2023-01-28T12:08:05;21.20;44.20
66708;DHT22;53622;0.000;0.000;2023-01-28T12:10:42;21.20;44.20
66708;DHT22;53622;0.000;0.000;2023-01-28T12:13:28;21.20;44.20
66708;DHT22;53622;0.000;0.000;2023-01-28T12:16:13;21.20;44.00
66708;DHT22;53622;0.000;0.000;2023-01-28T12:21:52;21.30;43.40
66708;DHT22;53622;0.000;0.000;2023-01-28T12:24:38;21.20;43.50
66708;DHT22;53622;0.000;0.000;2023-01-28T12:27:21;21.20;43.40
66708;DHT22;53622;0.000;0.000;2023-01-28T12:29:59;21.10;43.40
66708;DHT22;53622;0.000;0.000;2023-01-28T12:32:42;21.10;43.50
66708;DHT22;53622;0.000;0.000;2023-01-28T12:35:45;21.10;43.50
66708;DHT22;53622;0.000;0.000;2023-01-28T12:38:26;21.10;42.90
66708;DHT22;53622;0.000;0.000;2023-01-28T12:41:06;21.00;43.20
66708;DHT22;53622;0.000;0.000;2023-01-28T12:43:50;21.00;43.20
66708;DHT22;53622;0.000;0.000;2023-01-28T12:46:29;21.00;43.20
66708;DHT22;53622;0.000;0.000;2023-01-28T12:49:04;21.00;43.20
66708;DHT22;53622;0.000;0.000;2023-01-28T12:51:46;21.00;43.00
66708;DHT22;53622;0.000;0.000;2023-01-28T12:54:21;21.00;43.40
66708;DHT22;53622;0.000;0.000;2023-01-28T12:56:54;21.00;43.80
66708;DHT22;53622;0.000;0.000;2023-01-28T12:59:27;21.00;43.80
66708;DHT22;53622;0.000;0.000;2023-01-28T13:02:05;21.10;43.70
66708;DHT22;53622;0.000;0.000;2023-01-28T13:04:46;21.10;43.90
66708;DHT22;53622;0.000;0.000;2023-01-28T13:07:24;21.20;44.40
66708;DHT22;53622;0.000;0.000;2023-01-28T13:10:00;21.20;44.40
66708;DHT22;53622;0.000;0.000;2023-01-28T13:12:32;21.20;44.30
66708;DHT22;53622;0.000;0.000;2023-01-28T13:15:02;21.20;44.00
66708;DHT22;53622;0.000;0.000;2023-01-28T13:17:32;21.30;44.00
66708;DHT22;53622;0.000;0.000;2023-01-28T13:20:13;21.30;43.90
66708;DHT22;53622;0.000;0.000;2023-01-28T13:22:44;21.30;43.80
66708;DHT22;53622;0.000;0.000;2023-01-28T13:25:22;21.30;43.60
66708;DHT22;53622;0.000;0.000;2023-01-28T13:27:57;21.40;43.60
66708;DHT22;53622;0.000;0.000;2023-01-28T13:30:28;21.40;43.30
66708;DHT22;53622;0.000;0.000;2023-01-28T13:33:00;21.40;43.20
66708;DHT22;53622;0.000;0.000;2023-01-28T13:35:33;21.40;43.10
66708;DHT22;53622;0.000;0.000;2023-01-28T13:38:13;21.40;43.10
66708;DHT22;53622;0.000;0.000;2023-01-28T13:40:53;21.40;43.30
66708;DHT22;53622;0.000;0.000;2023-01-28T13:43:34;21.40;43.00
66708;DHT22;53622;0.000;0.000;2023-01-28T13:46:07;21.40;43.00
66708;DHT22;53622;0.000;0.000;2023-01-28T13:48:41;21.40;43.00
66708;DHT22;53622;0.000;0.000;2023-01-28T13:51:19;21.40;43.00
66708;DHT22;53622;0.000;0.000;2023-01-28T13:53:58;21.50;43.00
66708;DHT22;53622;0.000;0.000;2023-01-28T13:56:31;21.50;42.90
66708;DHT22;53622;0.000;0.000;2023-01-28T13:59:28;21.50;42.20
66708;DHT22;53622;0.000;0.000;2023-01-28T14:08:30;21.50;42.50
66708;DHT22;53622;0.000;0.000;2023-01-28T14:11:17;21.40;42.40
66708;DHT22;53622;0.000;0.000;2023-01-28T14:16:52;21.30;42.40
66708;DHT22;53622;0.000;0.000;2023-01-28T14:19:27;21.20;42.40
66708;DHT22;53622;0.000;0.000;2023-01-28T14:22:05;21.20;42.90
66708;DHT22;53622;0.000;0.000;2023-01-28T14:24:36;21.20;42.70
66708;DHT22;53622;0.000;0.000;2023-01-28T14:27:12;21.20;42.30
66708;DHT22;53622;0.000;0.000;2023-01-28T14:29:49;21.10;43.00
66708;DHT22;53622;0.000;0.000;2023-01-28T14:32:25;21.10;43.00
66708;DHT22;53622;0.000;0.000;2023-01-28T14:34:57;21.10;42.80
66708;DHT22;53622;0.000;0.000;2023-01-28T14:37:28;21.00;42.70
66708;DHT22;53622;0.000;0.000;2023-01-28T14:40:00;21.00;42.60
66708;DHT22;53622;0.000;0.000;2023-01-28T14:42:36;21.10;42.60
66708;DHT22;53622;0.000;0.000;2023-01-28T14:45:17;21.10;43.00
66708;DHT22;53622;0.000;0.000;2023-01-28T14:48:11;21.10;42.90
66708;DHT22;53622;0.000;0.000;2023-01-28T14:51:05;21.10;42.70
66708;DHT22;53622;0.000;0.000;2023-01-28T14:56:39;21.00;42.80
66708;DHT22;53622;0.000;0.000;2023-01-28T14:59:17;21.00;43.10
66708;DHT22;53622;0.000;0.000;2023-01-28T15:01:53;21.00;43.40
66708;DHT22;53622;0.000;0.000;2023-01-28T15:04:24;21.00;43.20
66708;DHT22;53622;0.000;0.000;2023-01-28T15:06:54;21.00;43.10
66708;DHT22;53622;0.000;0.000;2023-01-28T15:09:23;20.90;43.30
66708;DHT22;53622;0.000;0.000;2023-01-28T15:11:55;20.90;43.40
66708;DHT22;53622;0.000;0.000;2023-01-28T15:14:29;20.90;43.30
66708;DHT22;53622;0.000;0.000;2023-01-28T15:17:01;20.80;43.30
66708;DHT22;53622;0.000;0.000;2023-01-28T15:19:33;20.80;43.30
66708;DHT22;53622;0.000;0.000;2023-01-28T15:22:05;20.60;42.40
66708;DHT22;53622;0.000;0.000;2023-01-28T15:24:36;20.60;43.50
66708;DHT22;53622;0.000;0.000;2023-01-28T15:27:16;20.70;43.90
66708;DHT22;53622;0.000;0.000;2023-01-28T15:29:53;20.70;43.30
66708;DHT22;53622;0.000;0.000;2023-01-28T15:32:26;20.70;43.30
66708;DHT22;53622;0.000;0.000;2023-01-28T15:34:58;20.70;44.00
66708;DHT22;53622;0.000;0.000;2023-01-28T15:37:29;20.70;43.40
